EGQS - Lossiemouth
Distance from station: E 5mi, 14km
Updated: 10/22/2017 7:50am
Light rain, Showers, Mostly cloudy
Light rain, Showers, Mostly cloudy
 Wind from WNW
Wind: WNW 13 mph , 20 km/h
Temperature: 54°F , 12°C
Dew Point: 50°F , 10°C
Humidity: 88%
Barometer: 29.68 inHg , 1005 hPa
Summary: Light rain, Showers
Clouds: Mostly Cloudy
Visibility: 6 miles , 10 km
Cloud details: Few Clouds 1400 ft
Mostly Cloudy 2000 ft
Mostly Cloudy 6000 ft
2017/10/22 14:50 EGQS 221450Z 29011KT 9999 -SHRA FEW014 BKN020 BKN060 12/10 Q1005 WHT TEMPO FEW020 BLU